sensor_id;sensor_type;location;lat;lon;timestamp;P1;durP1;ratioP1;P2;durP2;ratioP2
462;SDS011;218;51.902;9.542;2023-06-04T00:01:38;2.08;;;1.88;;
462;SDS011;218;51.902;9.542;2023-06-04T00:04:05;2.00;;;1.70;;
462;SDS011;218;51.902;9.542;2023-06-04T00:06:32;2.00;;;1.90;;
462;SDS011;218;51.902;9.542;2023-06-04T00:08:59;1.85;;;1.75;;
462;SDS011;218;51.902;9.542;2023-06-04T00:11:27;2.80;;;1.65;;
462;SDS011;218;51.902;9.542;2023-06-04T00:13:55;1.90;;;1.80;;
462;SDS011;218;51.902;9.542;2023-06-04T00:16:23;1.83;;;1.73;;
462;SDS011;218;51.902;9.542;2023-06-04T00:18:50;1.90;;;1.70;;
462;SDS011;218;51.902;9.542;2023-06-04T00:21:17;1.95;;;1.75;;
462;SDS011;218;51.902;9.542;2023-06-04T00:23:45;1.60;;;1.50;;
462;SDS011;218;51.902;9.542;2023-06-04T00:26:12;2.10;;;2.00;;
462;SDS011;218;51.902;9.542;2023-06-04T00:28:41;1.93;;;1.80;;
462;SDS011;218;51.902;9.542;2023-06-04T00:31:08;1.90;;;1.80;;
462;SDS011;218;51.902;9.542;2023-06-04T00:33:35;1.80;;;1.70;;
462;SDS011;218;51.902;9.542;2023-06-04T00:36:02;1.80;;;1.70;;
462;SDS011;218;51.902;9.542;2023-06-04T00:38:29;1.70;;;1.55;;
462;SDS011;218;51.902;9.542;2023-06-04T00:40:57;1.98;;;1.60;;
462;SDS011;218;51.902;9.542;2023-06-04T00:43:25;2.20;;;2.00;;
462;SDS011;218;51.902;9.542;2023-06-04T00:45:54;2.30;;;2.10;;
462;SDS011;218;51.902;9.542;2023-06-04T00:48:22;2.50;;;1.80;;
462;SDS011;218;51.902;9.542;2023-06-04T00:50:52;1.60;;;1.50;;
462;SDS011;218;51.902;9.542;2023-06-04T00:53:20;2.53;;;2.00;;
462;SDS011;218;51.902;9.542;2023-06-04T00:55:47;2.53;;;1.90;;
462;SDS011;218;51.902;9.542;2023-06-04T00:58:15;2.00;;;1.60;;
462;SDS011;218;51.902;9.542;2023-06-04T01:00:42;2.07;;;1.97;;
462;SDS011;218;51.902;9.542;2023-06-04T01:03:13;3.20;;;1.80;;
462;SDS011;218;51.902;9.542;2023-06-04T01:05:43;1.92;;;1.83;;
462;SDS011;218;51.902;9.542;2023-06-04T01:08:13;1.83;;;1.73;;
462;SDS011;218;51.902;9.542;2023-06-04T01:10:49;1.70;;;1.60;;
462;SDS011;218;51.902;9.542;2023-06-04T01:13:17;1.77;;;1.60;;
462;SDS011;218;51.902;9.542;2023-06-04T01:15:44;2.10;;;1.90;;
462;SDS011;218;51.902;9.542;2023-06-04T01:18:12;1.88;;;1.75;;
462;SDS011;218;51.902;9.542;2023-06-04T01:20:52;2.30;;;1.90;;
462;SDS011;218;51.902;9.542;2023-06-04T01:23:26;2.30;;;2.10;;
462;SDS011;218;51.902;9.542;2023-06-04T01:25:59;1.70;;;1.60;;
462;SDS011;218;51.902;9.542;2023-06-04T01:28:27;2.20;;;1.88;;
462;SDS011;218;51.902;9.542;2023-06-04T01:30:55;2.50;;;2.30;;
462;SDS011;218;51.902;9.542;2023-06-04T01:33:24;2.28;;;1.92;;
462;SDS011;218;51.902;9.542;2023-06-04T01:35:51;2.30;;;2.10;;
462;SDS011;218;51.902;9.542;2023-06-04T01:38:18;2.35;;;1.80;;
462;SDS011;218;51.902;9.542;2023-06-04T01:41:54;2.20;;;2.00;;
462;SDS011;218;51.902;9.542;2023-06-04T01:44:21;2.60;;;2.40;;
462;SDS011;218;51.902;9.542;2023-06-04T01:46:48;2.70;;;2.00;;
462;SDS011;218;51.902;9.542;2023-06-04T01:49:15;2.03;;;1.93;;
462;SDS011;218;51.902;9.542;2023-06-04T01:51:42;2.22;;;2.03;;
462;SDS011;218;51.902;9.542;2023-06-04T01:54:09;2.60;;;2.40;;
462;SDS011;218;51.902;9.542;2023-06-04T01:56:37;2.40;;;2.20;;
462;SDS011;218;51.902;9.542;2023-06-04T01:59:05;2.60;;;2.40;;
462;SDS011;218;51.902;9.542;2023-06-04T02:01:32;2.00;;;1.90;;
462;SDS011;218;51.902;9.542;2023-06-04T02:04:00;2.20;;;1.90;;
462;SDS011;218;51.902;9.542;2023-06-04T02:06:27;2.40;;;2.20;;
462;SDS011;218;51.902;9.542;2023-06-04T02:08:55;2.40;;;2.20;;
462;SDS011;218;51.902;9.542;2023-06-04T02:11:22;2.40;;;2.20;;
462;SDS011;218;51.902;9.542;2023-06-04T02:13:50;2.40;;;2.20;;
462;SDS011;218;51.902;9.542;2023-06-04T02:16:18;2.13;;;1.92;;
462;SDS011;218;51.902;9.542;2023-06-04T02:18:46;2.40;;;2.20;;
462;SDS011;218;51.902;9.542;2023-06-04T02:21:13;2.50;;;2.10;;
462;SDS011;218;51.902;9.542;2023-06-04T02:23:40;2.28;;;2.08;;
462;SDS011;218;51.902;9.542;2023-06-04T02:26:07;2.20;;;2.00;;
462;SDS011;218;51.902;9.542;2023-06-04T02:28:35;2.20;;;2.00;;
462;SDS011;218;51.902;9.542;2023-06-04T02:31:03;1.65;;;1.55;;
462;SDS011;218;51.902;9.542;2023-06-04T02:33:31;2.90;;;2.10;;
462;SDS011;218;51.902;9.542;2023-06-04T02:35:58;2.10;;;1.90;;
462;SDS011;218;51.902;9.542;2023-06-04T02:38:27;3.42;;;2.80;;
462;SDS011;218;51.902;9.542;2023-06-04T02:40:54;4.32;;;2.40;;
462;SDS011;218;51.902;9.542;2023-06-04T02:47:49;5.13;;;3.50;;
462;SDS011;218;51.902;9.542;2023-06-04T02:50:17;7.63;;;4.80;;
462;SDS011;218;51.902;9.542;2023-06-04T02:54:13;8.68;;;5.45;;
462;SDS011;218;51.902;9.542;2023-06-04T02:56:42;8.20;;;4.95;;
462;SDS011;218;51.902;9.542;2023-06-04T02:59:09;7.35;;;4.90;;
462;SDS011;218;51.902;9.542;2023-06-04T03:01:36;4.72;;;3.92;;
462;SDS011;218;51.902;9.542;2023-06-04T03:04:03;6.40;;;3.53;;
462;SDS011;218;51.902;9.542;2023-06-04T03:06:35;5.30;;;3.60;;
462;SDS011;218;51.902;9.542;2023-06-04T03:09:04;7.30;;;3.40;;
462;SDS011;218;51.902;9.542;2023-06-04T03:15:27;4.03;;;2.80;;
462;SDS011;218;51.902;9.542;2023-06-04T03:17:54;3.30;;;3.00;;
462;SDS011;218;51.902;9.542;2023-06-04T03:21:29;4.57;;;3.00;;
462;SDS011;218;51.902;9.542;2023-06-04T03:23:56;2.83;;;2.53;;
462;SDS011;218;51.902;9.542;2023-06-04T03:26:24;3.45;;;2.50;;
462;SDS011;218;51.902;9.542;2023-06-04T03:28:51;3.70;;;2.47;;
462;SDS011;218;51.902;9.542;2023-06-04T03:31:18;2.60;;;2.40;;
462;SDS011;218;51.902;9.542;2023-06-04T03:33:46;2.30;;;2.10;;
462;SDS011;218;51.902;9.542;2023-06-04T03:36:13;2.88;;;2.67;;
462;SDS011;218;51.902;9.542;2023-06-04T03:38:42;2.30;;;2.10;;
462;SDS011;218;51.902;9.542;2023-06-04T03:41:12;2.70;;;2.50;;
462;SDS011;218;51.902;9.542;2023-06-04T03:43:39;2.90;;;2.60;;
462;SDS011;218;51.902;9.542;2023-06-04T03:46:06;2.67;;;2.47;;
462;SDS011;218;51.902;9.542;2023-06-04T03:48:33;2.33;;;2.13;;
462;SDS011;218;51.902;9.542;2023-06-04T03:51:00;3.08;;;2.40;;
462;SDS011;218;51.902;9.542;2023-06-04T03:53:27;2.30;;;2.10;;
462;SDS011;218;51.902;9.542;2023-06-04T03:59:36;2.50;;;2.30;;
462;SDS011;218;51.902;9.542;2023-06-04T04:02:03;3.05;;;2.13;;
462;SDS011;218;51.902;9.542;2023-06-04T04:04:31;2.23;;;2.03;;
462;SDS011;218;51.902;9.542;2023-06-04T04:06:59;3.50;;;2.35;;
462;SDS011;218;51.902;9.542;2023-06-04T04:09:27;3.55;;;2.50;;
462;SDS011;218;51.902;9.542;2023-06-04T04:11:54;2.40;;;2.20;;
462;SDS011;218;51.902;9.542;2023-06-04T04:14:21;2.20;;;2.00;;
462;SDS011;218;51.902;9.542;2023-06-04T04:16:49;2.50;;;2.30;;
462;SDS011;218;51.902;9.542;2023-06-04T04:19:16;2.65;;;2.42;;
462;SDS011;218;51.902;9.542;2023-06-04T04:21:44;2.42;;;2.22;;
462;SDS011;218;51.902;9.542;2023-06-04T04:24:21;2.72;;;2.45;;
462;SDS011;218;51.902;9.542;2023-06-04T04:26:48;2.60;;;2.40;;
462;SDS011;218;51.902;9.542;2023-06-04T04:29:18;3.92;;;2.10;;
462;SDS011;218;51.902;9.542;2023-06-04T04:31:47;3.00;;;2.40;;
462;SDS011;218;51.902;9.542;2023-06-04T04:34:16;2.50;;;2.30;;
462;SDS011;218;51.902;9.542;2023-06-04T04:36:45;2.60;;;2.40;;
462;SDS011;218;51.902;9.542;2023-06-04T04:39:17;2.30;;;2.10;;
462;SDS011;218;51.902;9.542;2023-06-04T04:44:52;2.60;;;2.40;;
462;SDS011;218;51.902;9.542;2023-06-04T04:47:19;3.42;;;3.13;;
462;SDS011;218;51.902;9.542;2023-06-04T04:49:46;3.03;;;2.72;;
462;SDS011;218;51.902;9.542;2023-06-04T04:52:14;3.00;;;2.70;;
462;SDS011;218;51.902;9.542;2023-06-04T04:59:08;3.03;;;2.70;;
462;SDS011;218;51.902;9.542;2023-06-04T05:01:35;2.95;;;2.75;;
462;SDS011;218;51.902;9.542;2023-06-04T05:04:02;2.72;;;2.25;;
462;SDS011;218;51.902;9.542;2023-06-04T05:07:41;2.72;;;2.33;;
462;SDS011;218;51.902;9.542;2023-06-04T05:10:08;2.20;;;2.00;;
462;SDS011;218;51.902;9.542;2023-06-04T05:12:35;3.78;;;2.83;;
462;SDS011;218;51.902;9.542;2023-06-04T05:15:03;3.40;;;2.63;;
462;SDS011;218;51.902;9.542;2023-06-04T05:17:30;2.95;;;2.50;;
462;SDS011;218;51.902;9.542;2023-06-04T05:19:57;2.63;;;2.42;;
462;SDS011;218;51.902;9.542;2023-06-04T05:23:24;2.85;;;2.53;;
462;SDS011;218;51.902;9.542;2023-06-04T05:25:52;2.85;;;2.65;;
462;SDS011;218;51.902;9.542;2023-06-04T05:28:19;3.03;;;2.80;;
462;SDS011;218;51.902;9.542;2023-06-04T05:30:49;3.75;;;2.80;;
462;SDS011;218;51.902;9.542;2023-06-04T05:33:17;3.40;;;3.10;;
462;SDS011;218;51.902;9.542;2023-06-04T05:35:44;3.22;;;2.92;;
462;SDS011;218;51.902;9.542;2023-06-04T05:38:11;3.30;;;2.97;;
462;SDS011;218;51.902;9.542;2023-06-04T05:40:43;4.57;;;2.80;;
462;SDS011;218;51.902;9.542;2023-06-04T05:43:11;3.53;;;3.22;;
462;SDS011;218;51.902;9.542;2023-06-04T05:45:38;3.63;;;3.05;;
462;SDS011;218;51.902;9.542;2023-06-04T05:48:05;3.95;;;3.20;;
462;SDS011;218;51.902;9.542;2023-06-04T05:50:32;2.75;;;2.53;;
462;SDS011;218;51.902;9.542;2023-06-04T05:52:59;3.13;;;2.80;;
462;SDS011;218;51.902;9.542;2023-06-04T05:55:26;2.92;;;2.72;;
462;SDS011;218;51.902;9.542;2023-06-04T05:57:55;3.40;;;2.45;;
462;SDS011;218;51.902;9.542;2023-06-04T06:00:22;2.60;;;2.40;;
462;SDS011;218;51.902;9.542;2023-06-04T06:02:50;3.40;;;3.20;;
462;SDS011;218;51.902;9.542;2023-06-04T06:05:18;3.28;;;2.72;;
462;SDS011;218;51.902;9.542;2023-06-04T06:07:46;3.17;;;2.77;;
462;SDS011;218;51.902;9.542;2023-06-04T06:10:13;2.58;;;2.38;;
462;SDS011;218;51.902;9.542;2023-06-04T06:12:40;2.45;;;2.25;;
462;SDS011;218;51.902;9.542;2023-06-04T06:15:09;2.80;;;2.60;;
462;SDS011;218;51.902;9.542;2023-06-04T06:17:37;3.30;;;3.00;;
462;SDS011;218;51.902;9.542;2023-06-04T06:20:05;2.60;;;2.40;;
462;SDS011;218;51.902;9.542;2023-06-04T06:22:33;3.15;;;2.95;;
462;SDS011;218;51.902;9.542;2023-06-04T06:25:00;3.80;;;2.60;;
462;SDS011;218;51.902;9.542;2023-06-04T06:27:27;2.30;;;2.10;;
462;SDS011;218;51.902;9.542;2023-06-04T06:29:54;3.13;;;2.92;;
462;SDS011;218;51.902;9.542;2023-06-04T06:32:23;2.10;;;1.90;;
462;SDS011;218;51.902;9.542;2023-06-04T06:34:50;2.70;;;2.50;;
462;SDS011;218;51.902;9.542;2023-06-04T06:37:17;2.50;;;2.30;;
462;SDS011;218;51.902;9.542;2023-06-04T06:39:44;2.50;;;2.40;;
462;SDS011;218;51.902;9.542;2023-06-04T06:42:13;2.47;;;2.28;;
462;SDS011;218;51.902;9.542;2023-06-04T06:44:42;2.33;;;2.13;;
462;SDS011;218;51.902;9.542;2023-06-04T06:47:09;3.27;;;2.60;;
462;SDS011;218;51.902;9.542;2023-06-04T06:49:39;3.30;;;2.85;;
462;SDS011;218;51.902;9.542;2023-06-04T06:52:07;2.60;;;2.10;;
462;SDS011;218;51.902;9.542;2023-06-04T06:54:34;2.65;;;2.42;;
462;SDS011;218;51.902;9.542;2023-06-04T06:57:01;2.50;;;2.27;;
462;SDS011;218;51.902;9.542;2023-06-04T06:59:33;2.30;;;2.20;;
462;SDS011;218;51.902;9.542;2023-06-04T07:02:00;2.60;;;2.40;;
462;SDS011;218;51.902;9.542;2023-06-04T07:04:28;2.50;;;2.30;;
462;SDS011;218;51.902;9.542;2023-06-04T07:06:56;2.57;;;2.40;;
462;SDS011;218;51.902;9.542;2023-06-04T07:09:23;3.38;;;2.70;;
462;SDS011;218;51.902;9.542;2023-06-04T07:11:50;3.13;;;2.93;;
462;SDS011;218;51.902;9.542;2023-06-04T07:14:17;3.10;;;2.90;;
462;SDS011;218;51.902;9.542;2023-06-04T07:16:44;4.23;;;2.37;;
462;SDS011;218;51.902;9.542;2023-06-04T07:19:12;3.13;;;2.93;;
462;SDS011;218;51.902;9.542;2023-06-04T07:21:39;4.30;;;2.50;;
462;SDS011;218;51.902;9.542;2023-06-04T07:24:07;2.40;;;2.20;;
462;SDS011;218;51.902;9.542;2023-06-04T07:26:34;2.67;;;2.47;;
462;SDS011;218;51.902;9.542;2023-06-04T07:29:02;2.97;;;2.77;;
462;SDS011;218;51.902;9.542;2023-06-04T07:31:29;2.90;;;2.37;;
462;SDS011;218;51.902;9.542;2023-06-04T07:33:56;2.70;;;2.33;;
462;SDS011;218;51.902;9.542;2023-06-04T07:36:23;2.27;;;2.10;;
462;SDS011;218;51.902;9.542;2023-06-04T07:38:50;3.23;;;2.93;;
462;SDS011;218;51.902;9.542;2023-06-04T07:41:18;4.73;;;3.53;;
462;SDS011;218;51.902;9.542;2023-06-04T07:43:45;3.43;;;3.13;;
462;SDS011;218;51.902;9.542;2023-06-04T07:46:12;2.53;;;2.27;;
462;SDS011;218;51.902;9.542;2023-06-04T07:48:43;3.27;;;2.97;;
462;SDS011;218;51.902;9.542;2023-06-04T07:51:13;4.13;;;2.30;;
462;SDS011;218;51.902;9.542;2023-06-04T07:53:40;3.57;;;3.27;;
462;SDS011;218;51.902;9.542;2023-06-04T07:56:09;3.30;;;2.60;;
462;SDS011;218;51.902;9.542;2023-06-04T07:58:38;3.00;;;2.60;;
462;SDS011;218;51.902;9.542;2023-06-04T08:01:05;6.20;;;3.30;;
462;SDS011;218;51.902;9.542;2023-06-04T08:03:33;3.30;;;3.00;;
462;SDS011;218;51.902;9.542;2023-06-04T08:06:01;2.73;;;2.53;;
462;SDS011;218;51.902;9.542;2023-06-04T08:08:29;3.37;;;2.23;;
462;SDS011;218;51.902;9.542;2023-06-04T08:10:56;2.67;;;2.47;;
462;SDS011;218;51.902;9.542;2023-06-04T08:13:22;2.50;;;2.40;;
462;SDS011;218;51.902;9.542;2023-06-04T08:15:51;2.80;;;1.97;;
462;SDS011;218;51.902;9.542;2023-06-04T08:18:18;2.60;;;2.40;;
462;SDS011;218;51.902;9.542;2023-06-04T08:20:44;2.70;;;2.50;;
462;SDS011;218;51.902;9.542;2023-06-04T08:23:11;2.30;;;2.00;;
462;SDS011;218;51.902;9.542;2023-06-04T08:25:38;3.53;;;2.47;;
462;SDS011;218;51.902;9.542;2023-06-04T08:28:05;5.80;;;2.80;;
462;SDS011;218;51.902;9.542;2023-06-04T08:30:32;2.07;;;1.93;;
462;SDS011;218;51.902;9.542;2023-06-04T08:33:02;2.57;;;2.30;;
462;SDS011;218;51.902;9.542;2023-06-04T08:35:31;6.13;;;3.00;;
462;SDS011;218;51.902;9.542;2023-06-04T08:37:58;3.67;;;2.40;;
462;SDS011;218;51.902;9.542;2023-06-04T08:40:24;2.50;;;2.30;;
462;SDS011;218;51.902;9.542;2023-06-04T08:42:55;2.77;;;2.50;;
462;SDS011;218;51.902;9.542;2023-06-04T08:45:25;3.60;;;2.57;;
462;SDS011;218;51.902;9.542;2023-06-04T08:47:52;2.13;;;2.03;;
462;SDS011;218;51.902;9.542;2023-06-04T08:50:22;2.50;;;2.33;;
462;SDS011;218;51.902;9.542;2023-06-04T08:52:51;2.57;;;2.37;;
462;SDS011;218;51.902;9.542;2023-06-04T08:55:19;2.80;;;2.60;;
462;SDS011;218;51.902;9.542;2023-06-04T08:57:47;2.70;;;2.43;;
462;SDS011;218;51.902;9.542;2023-06-04T09:00:16;2.30;;;2.10;;
462;SDS011;218;51.902;9.542;2023-06-04T09:02:43;3.10;;;2.40;;
462;SDS011;218;51.902;9.542;2023-06-04T09:05:11;3.83;;;2.30;;
462;SDS011;218;51.902;9.542;2023-06-04T09:07:46;2.03;;;1.93;;
462;SDS011;218;51.902;9.542;2023-06-04T09:10:15;2.57;;;2.43;;
462;SDS011;218;51.902;9.542;2023-06-04T09:12:45;3.40;;;2.33;;
462;SDS011;218;51.902;9.542;2023-06-04T09:15:13;2.53;;;2.33;;
462;SDS011;218;51.902;9.542;2023-06-04T09:17:40;2.20;;;2.00;;
462;SDS011;218;51.902;9.542;2023-06-04T09:20:07;3.13;;;2.70;;
462;SDS011;218;51.902;9.542;2023-06-04T09:22:44;2.80;;;2.30;;
462;SDS011;218;51.902;9.542;2023-06-04T09:25:19;2.13;;;1.90;;
462;SDS011;218;51.902;9.542;2023-06-04T09:27:47;2.20;;;1.80;;
462;SDS011;218;51.902;9.542;2023-06-04T09:30:14;3.40;;;2.00;;
462;SDS011;218;51.902;9.542;2023-06-04T09:32:41;2.20;;;2.00;;
462;SDS011;218;51.902;9.542;2023-06-04T09:35:09;2.57;;;2.40;;
462;SDS011;218;51.902;9.542;2023-06-04T09:37:37;2.47;;;2.33;;
462;SDS011;218;51.902;9.542;2023-06-04T09:40:05;3.47;;;2.50;;
462;SDS011;218;51.902;9.542;2023-06-04T09:42:42;2.13;;;2.00;;
462;SDS011;218;51.902;9.542;2023-06-04T09:45:09;2.77;;;2.40;;
462;SDS011;218;51.902;9.542;2023-06-04T09:47:41;2.50;;;2.23;;
462;SDS011;218;51.902;9.542;2023-06-04T09:50:08;2.30;;;2.10;;
462;SDS011;218;51.902;9.542;2023-06-04T09:52:36;2.33;;;2.13;;
462;SDS011;218;51.902;9.542;2023-06-04T09:55:14;2.40;;;2.20;;
462;SDS011;218;51.902;9.542;2023-06-04T09:57:45;2.10;;;1.77;;
462;SDS011;218;51.902;9.542;2023-06-04T10:00:14;2.43;;;1.90;;
462;SDS011;218;51.902;9.542;2023-06-04T10:02:44;2.23;;;1.90;;
462;SDS011;218;51.902;9.542;2023-06-04T10:05:12;2.30;;;2.10;;
462;SDS011;218;51.902;9.542;2023-06-04T10:07:40;3.80;;;2.07;;
462;SDS011;218;51.902;9.542;2023-06-04T10:10:11;2.80;;;2.30;;
462;SDS011;218;51.902;9.542;2023-06-04T10:12:42;2.27;;;2.17;;
462;SDS011;218;51.902;9.542;2023-06-04T10:15:12;3.30;;;2.17;;
462;SDS011;218;51.902;9.542;2023-06-04T10:17:39;2.20;;;2.00;;
462;SDS011;218;51.902;9.542;2023-06-04T10:20:06;2.60;;;2.40;;
462;SDS011;218;51.902;9.542;2023-06-04T10:22:35;2.00;;;1.90;;
462;SDS011;218;51.902;9.542;2023-06-04T10:25:02;2.07;;;1.87;;
462;SDS011;218;51.902;9.542;2023-06-04T10:27:30;2.30;;;1.90;;
462;SDS011;218;51.902;9.542;2023-06-04T10:30:00;2.53;;;2.33;;
462;SDS011;218;51.902;9.542;2023-06-04T10:32:29;2.90;;;1.90;;
462;SDS011;218;51.902;9.542;2023-06-04T10:34:56;2.00;;;1.80;;
462;SDS011;218;51.902;9.542;2023-06-04T10:37:24;2.83;;;2.20;;
462;SDS011;218;51.902;9.542;2023-06-04T10:39:52;2.10;;;1.80;;
462;SDS011;218;51.902;9.542;2023-06-04T10:42:19;2.37;;;2.00;;
462;SDS011;218;51.902;9.542;2023-06-04T10:44:47;3.10;;;1.90;;
462;SDS011;218;51.902;9.542;2023-06-04T10:47:19;2.93;;;1.93;;
462;SDS011;218;51.902;9.542;2023-06-04T10:49:48;2.33;;;2.07;;
462;SDS011;218;51.902;9.542;2023-06-04T10:52:16;1.80;;;1.70;;
462;SDS011;218;51.902;9.542;2023-06-04T10:54:44;1.87;;;1.67;;
462;SDS011;218;51.902;9.542;2023-06-04T10:57:13;3.73;;;1.90;;
462;SDS011;218;51.902;9.542;2023-06-04T10:59:42;2.47;;;1.93;;
462;SDS011;218;51.902;9.542;2023-06-04T11:02:20;2.17;;;1.50;;
462;SDS011;218;51.902;9.542;2023-06-04T11:04:57;1.80;;;1.67;;
462;SDS011;218;51.902;9.542;2023-06-04T11:07:26;1.90;;;1.80;;
462;SDS011;218;51.902;9.542;2023-06-04T11:09:53;1.67;;;1.57;;
462;SDS011;218;51.902;9.542;2023-06-04T11:12:21;2.60;;;1.90;;
462;SDS011;218;51.902;9.542;2023-06-04T11:14:55;2.37;;;1.90;;
462;SDS011;218;51.902;9.542;2023-06-04T11:17:22;1.63;;;1.53;;
462;SDS011;218;51.902;9.542;2023-06-04T11:19:50;2.37;;;2.10;;
462;SDS011;218;51.902;9.542;2023-06-04T11:22:20;1.90;;;1.70;;
462;SDS011;218;51.902;9.542;2023-06-04T11:24:47;1.77;;;1.67;;
462;SDS011;218;51.902;9.542;2023-06-04T11:27:17;2.70;;;2.03;;
462;SDS011;218;51.902;9.542;2023-06-04T11:29:48;2.77;;;1.50;;
462;SDS011;218;51.902;9.542;2023-06-04T11:32:20;2.23;;;1.90;;
462;SDS011;218;51.902;9.542;2023-06-04T11:34:48;1.67;;;1.57;;
462;SDS011;218;51.902;9.542;2023-06-04T11:37:16;1.80;;;1.40;;
462;SDS011;218;51.902;9.542;2023-06-04T11:39:43;2.87;;;2.00;;
462;SDS011;218;51.902;9.542;2023-06-04T11:42:10;2.17;;;1.77;;
462;SDS011;218;51.902;9.542;2023-06-04T11:44:38;2.40;;;1.60;;
462;SDS011;218;51.902;9.542;2023-06-04T11:47:10;2.07;;;1.80;;
462;SDS011;218;51.902;9.542;2023-06-04T11:49:38;2.03;;;1.83;;
462;SDS011;218;51.902;9.542;2023-06-04T11:52:05;1.83;;;1.47;;
462;SDS011;218;51.902;9.542;2023-06-04T11:54:35;4.83;;;2.00;;
462;SDS011;218;51.902;9.542;2023-06-04T11:57:03;2.17;;;1.97;;
462;SDS011;218;51.902;9.542;2023-06-04T11:59:31;2.43;;;1.80;;
462;SDS011;218;51.902;9.542;2023-06-04T12:01:58;1.77;;;1.63;;
462;SDS011;218;51.902;9.542;2023-06-04T12:04:29;3.53;;;1.90;;
462;SDS011;218;51.902;9.542;2023-06-04T12:06:56;2.33;;;2.13;;
462;SDS011;218;51.902;9.542;2023-06-04T12:09:25;2.40;;;2.20;;
462;SDS011;218;51.902;9.542;2023-06-04T12:12:00;2.87;;;1.90;;
462;SDS011;218;51.902;9.542;2023-06-04T12:14:28;3.33;;;1.87;;
462;SDS011;218;51.902;9.542;2023-06-04T12:16:56;2.23;;;2.03;;
462;SDS011;218;51.902;9.542;2023-06-04T12:19:23;2.50;;;2.10;;
462;SDS011;218;51.902;9.542;2023-06-04T12:22:00;3.37;;;1.97;;
462;SDS011;218;51.902;9.542;2023-06-04T12:24:31;2.80;;;2.20;;
462;SDS011;218;51.902;9.542;2023-06-04T12:27:09;2.80;;;2.30;;
462;SDS011;218;51.902;9.542;2023-06-04T12:29:36;2.00;;;1.77;;
462;SDS011;218;51.902;9.542;2023-06-04T12:32:04;3.40;;;2.27;;
462;SDS011;218;51.902;9.542;2023-06-04T12:34:33;2.23;;;2.03;;
462;SDS011;218;51.902;9.542;2023-06-04T12:37:00;2.80;;;2.50;;
462;SDS011;218;51.902;9.542;2023-06-04T12:39:28;4.57;;;2.27;;
462;SDS011;218;51.902;9.542;2023-06-04T12:41:55;1.90;;;1.80;;
462;SDS011;218;51.902;9.542;2023-06-04T12:44:24;3.57;;;2.47;;
462;SDS011;218;51.902;9.542;2023-06-04T12:46:51;5.50;;;2.20;;
462;SDS011;218;51.902;9.542;2023-06-04T12:49:18;2.67;;;2.17;;
462;SDS011;218;51.902;9.542;2023-06-04T12:51:45;3.03;;;2.13;;
462;SDS011;218;51.902;9.542;2023-06-04T12:54:12;2.70;;;2.07;;
462;SDS011;218;51.902;9.542;2023-06-04T12:56:39;3.33;;;2.40;;
462;SDS011;218;51.902;9.542;2023-06-04T12:59:07;2.90;;;2.20;;
462;SDS011;218;51.902;9.542;2023-06-04T13:01:35;2.50;;;2.30;;
462;SDS011;218;51.902;9.542;2023-06-04T13:04:02;3.57;;;2.20;;
462;SDS011;218;51.902;9.542;2023-06-04T13:06:29;4.13;;;2.33;;
462;SDS011;218;51.902;9.542;2023-06-04T13:08:56;3.17;;;2.53;;
462;SDS011;218;51.902;9.542;2023-06-04T13:11:23;2.53;;;2.33;;
462;SDS011;218;51.902;9.542;2023-06-04T13:13:50;5.03;;;2.27;;
462;SDS011;218;51.902;9.542;2023-06-04T13:16:17;3.33;;;2.27;;
462;SDS011;218;51.902;9.542;2023-06-04T13:18:45;4.90;;;2.50;;
462;SDS011;218;51.902;9.542;2023-06-04T13:21:12;4.90;;;2.50;;
462;SDS011;218;51.902;9.542;2023-06-04T13:23:39;2.77;;;2.00;;
462;SDS011;218;51.902;9.542;2023-06-04T13:26:06;5.03;;;2.37;;
462;SDS011;218;51.902;9.542;2023-06-04T13:28:34;3.30;;;2.67;;
462;SDS011;218;51.902;9.542;2023-06-04T13:31:01;3.10;;;2.10;;
462;SDS011;218;51.902;9.542;2023-06-04T13:33:28;2.57;;;2.37;;
462;SDS011;218;51.902;9.542;2023-06-04T13:35:56;3.00;;;2.40;;
462;SDS011;218;51.902;9.542;2023-06-04T13:38:23;2.30;;;1.87;;
462;SDS011;218;51.902;9.542;2023-06-04T13:40:50;2.20;;;2.00;;
462;SDS011;218;51.902;9.542;2023-06-04T13:43:17;2.00;;;1.80;;
462;SDS011;218;51.902;9.542;2023-06-04T13:45:44;2.20;;;2.00;;
462;SDS011;218;51.902;9.542;2023-06-04T13:48:11;3.10;;;1.90;;
462;SDS011;218;51.902;9.542;2023-06-04T13:50:38;3.40;;;1.90;;
462;SDS011;218;51.902;9.542;2023-06-04T13:53:06;2.50;;;2.30;;
462;SDS011;218;51.902;9.542;2023-06-04T13:55:33;2.50;;;2.30;;
462;SDS011;218;51.902;9.542;2023-06-04T13:58:00;5.47;;;2.00;;
462;SDS011;218;51.902;9.542;2023-06-04T14:00:27;2.90;;;1.97;;
462;SDS011;218;51.902;9.542;2023-06-04T14:02:55;2.30;;;2.10;;
462;SDS011;218;51.902;9.542;2023-06-04T14:05:24;3.47;;;2.03;;
462;SDS011;218;51.902;9.542;2023-06-04T14:07:53;3.37;;;2.30;;
462;SDS011;218;51.902;9.542;2023-06-04T14:10:21;2.40;;;2.20;;
462;SDS011;218;51.902;9.542;2023-06-04T14:12:48;2.73;;;1.90;;
462;SDS011;218;51.902;9.542;2023-06-04T14:15:15;2.27;;;2.07;;
462;SDS011;218;51.902;9.542;2023-06-04T14:17:42;2.73;;;2.53;;
462;SDS011;218;51.902;9.542;2023-06-04T14:20:09;2.40;;;2.20;;
462;SDS011;218;51.902;9.542;2023-06-04T14:22:36;2.77;;;1.83;;
462;SDS011;218;51.902;9.542;2023-06-04T14:25:03;4.10;;;2.37;;
462;SDS011;218;51.902;9.542;2023-06-04T14:27:32;3.10;;;2.13;;
462;SDS011;218;51.902;9.542;2023-06-04T14:30:00;2.50;;;2.20;;
462;SDS011;218;51.902;9.542;2023-06-04T14:32:28;2.10;;;1.90;;
462;SDS011;218;51.902;9.542;2023-06-04T14:34:55;3.20;;;1.87;;
462;SDS011;218;51.902;9.542;2023-06-04T14:37:22;5.27;;;2.13;;
462;SDS011;218;51.902;9.542;2023-06-04T14:39:49;2.60;;;2.40;;
462;SDS011;218;51.902;9.542;2023-06-04T14:42:16;2.67;;;2.10;;
462;SDS011;218;51.902;9.542;2023-06-04T14:44:44;2.83;;;2.50;;
462;SDS011;218;51.902;9.542;2023-06-04T14:47:12;2.50;;;1.90;;
462;SDS011;218;51.902;9.542;2023-06-04T14:49:38;2.50;;;2.30;;
462;SDS011;218;51.902;9.542;2023-06-04T14:52:05;5.00;;;2.07;;
462;SDS011;218;51.902;9.542;2023-06-04T14:54:32;2.53;;;2.33;;
462;SDS011;218;51.902;9.542;2023-06-04T14:57:00;2.40;;;1.93;;
462;SDS011;218;51.902;9.542;2023-06-04T14:59:27;2.40;;;1.90;;
462;SDS011;218;51.902;9.542;2023-06-04T15:01:56;2.80;;;1.83;;
462;SDS011;218;51.902;9.542;2023-06-04T15:04:23;2.97;;;1.90;;
462;SDS011;218;51.902;9.542;2023-06-04T15:06:49;2.33;;;2.13;;
462;SDS011;218;51.902;9.542;2023-06-04T15:09:16;2.10;;;1.90;;
462;SDS011;218;51.902;9.542;2023-06-04T15:11:43;1.67;;;1.57;;
462;SDS011;218;51.902;9.542;2023-06-04T15:14:10;2.30;;;1.90;;
462;SDS011;218;51.902;9.542;2023-06-04T15:16:37;1.73;;;1.53;;
462;SDS011;218;51.902;9.542;2023-06-04T15:19:05;3.10;;;2.10;;
462;SDS011;218;51.902;9.542;2023-06-04T15:21:33;3.40;;;2.17;;
462;SDS011;218;51.902;9.542;2023-06-04T15:24:00;2.30;;;2.00;;
462;SDS011;218;51.902;9.542;2023-06-04T15:26:27;2.17;;;1.97;;
462;SDS011;218;51.902;9.542;2023-06-04T15:28:54;3.23;;;2.00;;
462;SDS011;218;51.902;9.542;2023-06-04T15:31:21;2.13;;;1.50;;
462;SDS011;218;51.902;9.542;2023-06-04T15:33:49;1.93;;;1.73;;
462;SDS011;218;51.902;9.542;2023-06-04T15:36:17;1.87;;;1.73;;
462;SDS011;218;51.902;9.542;2023-06-04T15:38:44;2.70;;;2.10;;
462;SDS011;218;51.902;9.542;2023-06-04T15:41:11;1.93;;;1.83;;
462;SDS011;218;51.902;9.542;2023-06-04T15:43:37;2.20;;;2.00;;
462;SDS011;218;51.902;9.542;2023-06-04T15:46:04;2.43;;;1.80;;
462;SDS011;218;51.902;9.542;2023-06-04T15:48:31;1.70;;;1.60;;
462;SDS011;218;51.902;9.542;2023-06-04T15:50:58;3.13;;;1.80;;
462;SDS011;218;51.902;9.542;2023-06-04T15:53:26;2.20;;;2.00;;
462;SDS011;218;51.902;9.542;2023-06-04T15:55:53;2.53;;;2.00;;
462;SDS011;218;51.902;9.542;2023-06-04T15:58:20;2.77;;;2.33;;
462;SDS011;218;51.902;9.542;2023-06-04T16:00:47;4.90;;;1.87;;
462;SDS011;218;51.902;9.542;2023-06-04T16:03:14;2.13;;;1.90;;
462;SDS011;218;51.902;9.542;2023-06-04T16:05:41;3.17;;;2.20;;
462;SDS011;218;51.902;9.542;2023-06-04T16:08:08;2.33;;;2.20;;
462;SDS011;218;51.902;9.542;2023-06-04T16:10:36;2.80;;;2.10;;
462;SDS011;218;51.902;9.542;2023-06-04T16:13:03;2.40;;;1.87;;
462;SDS011;218;51.902;9.542;2023-06-04T16:15:30;1.97;;;1.87;;